Time;durP1;ratioP1;P1;durP2;ratioP2;P2;SDS_P1;SDS_P2;PMS_P1;PMS_P2;Temp;Humidity;BMP_temperature;BMP_pressure;BME280_temperature;BME280_humidity;BME280_pressure;Samples;Min_cycle;Max_cycle;Signal;HPM_P1;HPM_P2
2024/01/17 00:00:11;;;;;;;0.95;0.95;;;;;;;-8.11;100.00;94751.13;1026174;28;20027;-67
2024/01/17 00:00:41;;;;;;;1.35;1.33;;;;;;;-8.07;100.00;94754.91;1027008;28;20038;-68
2024/01/17 00:01:12;;;;;;;0.90;0.90;;;;;;;-8.05;100.00;94752.97;1022340;28;20046;-68
2024/01/17 00:01:42;;;;;;;0.40;0.40;;;;;;;-8.04;100.00;94754.56;1027384;28;20027;-67
2024/01/17 00:02:13;;;;;;;1.00;1.00;;;;;;;-8.03;100.00;94756.13;1031676;28;20034;-67
2024/01/17 00:02:43;;;;;;;0.20;0.20;;;;;;;-8.01;100.00;94753.41;1031266;28;20038;-68
2024/01/17 00:03:13;;;;;;;0.30;0.30;;;;;;;-8.01;100.00;94746.59;1029474;28;20089;-67
2024/01/17 00:03:44;;;;;;;0.85;0.73;;;;;;;-7.99;100.00;94749.72;1027595;28;20038;-68
2024/01/17 00:04:15;;;;;;;0.65;0.65;;;;;;;-8.00;100.00;94745.63;1027716;28;20251;-68
2024/01/17 00:04:46;;;;;;;1.08;1.00;;;;;;;-7.96;100.00;94743.50;1031230;28;20065;-69
2024/01/17 00:05:17;;;;;;;0.66;0.66;;;;;;;-7.94;100.00;94742.38;1035932;28;20064;-67
2024/01/17 00:05:47;;;;;;;0.75;0.75;;;;;;;-7.92;100.00;94747.28;1035708;28;20085;-69
2024/01/17 00:06:18;;;;;;;2.55;1.95;;;;;;;-7.91;100.00;94733.63;1031849;28;20073;-68
2024/01/17 00:06:48;;;;;;;0.55;0.55;;;;;;;-7.91;100.00;94724.22;1035376;28;20041;-67
2024/01/17 00:07:20;;;;;;;1.80;1.70;;;;;;;-7.86;100.00;94732.13;1031180;28;20030;-69
2024/01/17 00:07:50;;;;;;;0.52;0.52;;;;;;;-7.82;100.00;94742.75;1031687;28;20120;-66
2024/01/17 00:08:21;;;;;;;1.40;1.30;;;;;;;-7.82;100.00;94733.34;1034776;28;20025;-67
2024/01/17 00:08:51;;;;;;;2.28;2.03;;;;;;;-7.80;100.00;94738.28;1035138;28;20030;-68
2024/01/17 00:09:22;;;;;;;0.70;0.70;;;;;;;-7.78;100.00;94733.00;1035421;28;20032;-68
2024/01/17 00:09:52;;;;;;;0.65;0.65;;;;;;;-7.77;100.00;94729.50;1035097;28;20081;-67
2024/01/17 00:10:24;;;;;;;0.85;0.85;;;;;;;-7.77;100.00;94725.19;1035563;28;20033;-67
2024/01/17 00:10:54;;;;;;;0.24;0.24;;;;;;;-7.77;100.00;94724.41;1031121;28;20050;-67
2024/01/17 00:11:25;;;;;;;0.40;0.40;;;;;;;-7.76;100.00;94720.91;1023202;28;20035;-67
2024/01/17 00:11:55;;;;;;;3.10;2.88;;;;;;;-7.73;100.00;94725.63;1023758;29;20119;-68
2024/01/17 00:12:26;;;;;;;6.93;2.55;;;;;;;-7.72;100.00;94719.56;1023208;28;20031;-69
2024/01/17 00:12:56;;;;;;;1.05;0.95;;;;;;;-7.73;100.00;94720.56;1027098;28;20054;-68
2024/01/17 00:13:26;;;;;;;0.85;0.85;;;;;;;-7.72;100.00;94728.00;1031225;28;20034;-68
2024/01/17 00:13:57;;;;;;;4.20;0.95;;;;;;;-7.73;100.00;94711.16;1031235;28;20626;-68
2024/01/17 00:14:28;;;;;;;5.15;2.83;;;;;;;-7.69;100.00;94721.78;1027245;28;20035;-68
2024/01/17 00:14:59;;;;;;;1.26;0.94;;;;;;;-7.69;100.00;94714.13;1031253;28;20042;-66
2024/01/17 00:15:30;;;;;;;0.82;0.50;;;;;;;-7.71;100.00;94718.59;1031150;28;20026;-68
2024/01/17 00:16:01;;;;;;;0.72;0.72;;;;;;;-7.68;100.00;94720.81;1027899;28;20034;-68
2024/01/17 00:16:31;;;;;;;0.85;0.85;;;;;;;-7.69;100.00;94721.78;1031679;28;20033;-68
2024/01/17 00:17:01;;;;;;;0.85;0.85;;;;;;;-7.70;100.00;94721.00;1030062;28;20034;-67
2024/01/17 00:17:32;;;;;;;0.95;0.95;;;;;;;-7.69;100.00;94726.88;1036122;28;20703;-68
2024/01/17 00:18:03;;;;;;;1.88;1.27;;;;;;;-7.68;100.00;94725.88;1034982;28;20022;-67
2024/01/17 00:18:33;;;;;;;0.98;0.90;;;;;;;-7.65;100.00;94728.09;1040228;28;20087;-68
2024/01/17 00:19:04;;;;;;;2.22;1.30;;;;;;;-7.64;100.00;94734.78;1040129;28;20030;-68
2024/01/17 00:19:35;;;;;;;1.55;1.20;;;;;;;-7.63;100.00;94726.16;1035416;28;20033;-68
2024/01/17 00:20:06;;;;;;;0.36;0.36;;;;;;;-7.62;100.00;94728.53;1035706;28;20026;-68
2024/01/17 00:20:37;;;;;;;1.42;1.32;;;;;;;-7.60;100.00;94729.16;1035338;28;20052;-67
2024/01/17 00:21:07;;;;;;;1.13;1.13;;;;;;;-7.57;100.00;94729.78;1036220;28;20026;-68
2024/01/17 00:21:38;;;;;;;6.45;2.45;;;;;;;-7.55;100.00;94733.72;1035232;28;20034;-68
2024/01/17 00:22:08;;;;;;;4.07;2.72;;;;;;;-7.52;100.00;94730.81;1030347;28;20033;-68
2024/01/17 00:22:39;;;;;;;1.00;1.00;;;;;;;-7.49;100.00;94737.31;1031308;28;20093;-68
2024/01/17 00:23:09;;;;;;;6.13;2.53;;;;;;;-7.46;100.00;94732.66;1023696;28;20023;-68
2024/01/17 00:23:39;;;;;;;0.75;0.75;;;;;;;-7.41;100.00;94734.69;1028125;28;20390;-67
2024/01/17 00:24:10;;;;;;;0.10;0.10;;;;;;;-7.38;100.00;94724.94;1035906;28;20025;-69
2024/01/17 00:24:41;;;;;;;1.30;0.65;;;;;;;-7.36;100.00;94728.09;1035419;28;20021;-67
2024/01/17 00:25:11;;;;;;;0.10;0.10;;;;;;;-7.33;100.00;94721.84;1031032;28;20663;-69
2024/01/17 00:25:42;;;;;;;3.53;2.70;;;;;;;-7.30;100.00;94718.97;1027303;28;20027;-67
2024/01/17 00:26:12;;;;;;;1.27;1.05;;;;;;;-7.29;100.00;94709.56;1025240;28;20034;-69
2024/01/17 00:26:43;;;;;;;0.10;0.10;;;;;;;-7.28;100.00;94708.56;1025268;28;20676;-68
2024/01/17 00:27:13;;;;;;;0.43;0.43;;;;;;;-7.29;100.00;94707.00;1029196;28;20019;-67
2024/01/17 00:27:43;;;;;;;0.85;0.73;;;;;;;-7.24;100.00;94709.78;1026903;28;20023;-67
2024/01/17 00:28:14;;;;;;;2.88;0.50;;;;;;;-7.24;100.00;94708.06;1024887;28;20039;-68
2024/01/17 00:28:44;;;;;;;2.83;1.70;;;;;;;-7.21;100.00;94714.53;1022789;28;20031;-68
2024/01/17 00:29:15;;;;;;;1.05;0.95;;;;;;;-7.19;100.00;94712.63;1022814;28;20031;-67
2024/01/17 00:29:46;;;;;;;1.65;1.58;;;;;;;-7.22;100.00;94712.97;1023309;28;20027;-68
2024/01/17 00:30:16;;;;;;;0.20;0.20;;;;;;;-7.14;100.00;94721.31;1030087;28;20097;-68
2024/01/17 00:30:47;;;;;;;0.77;0.77;;;;;;;-7.14;100.00;94721.31;1027255;28;20055;-68
2024/01/17 00:31:17;;;;;;;0.10;0.10;;;;;;;-7.11;100.00;94725.25;1031205;28;20025;-68
2024/01/17 00:31:48;;;;;;;0.30;0.30;;;;;;;-7.07;100.00;94721.41;1028386;28;20031;-69
2024/01/17 00:32:18;;;;;;;1.50;1.40;;;;;;;-7.05;100.00;94722.00;1031535;28;20027;-67
2024/01/17 00:32:49;;;;;;;0.95;0.88;;;;;;;-7.01;100.00;94732.63;1027077;28;20450;-67
2024/01/17 00:33:19;;;;;;;1.75;1.17;;;;;;;-6.97;100.00;94738.97;1029674;28;20029;-66
2024/01/17 00:33:49;;;;;;;3.03;2.72;;;;;;;-6.96;100.00;94733.66;1030079;28;20026;-68
2024/01/17 00:34:20;;;;;;;0.80;0.80;;;;;;;-6.92;100.00;94729.78;1028141;28;20081;-68
2024/01/17 00:34:51;;;;;;;1.55;1.45;;;;;;;-6.91;100.00;94735.66;1031345;28;20022;-69
2024/01/17 00:35:21;;;;;;;0.17;0.17;;;;;;;-6.86;100.00;94735.16;1030905;28;20416;-67
2024/01/17 00:35:52;;;;;;;1.42;1.33;;;;;;;-6.86;100.00;94728.28;1029481;28;20034;-68
2024/01/17 00:36:22;;;;;;;1.08;1.08;;;;;;;-6.83;100.00;94729.69;1027096;28;20576;-69
2024/01/17 00:36:52;;;;;;;0.57;0.57;;;;;;;-6.81;100.00;94730.28;1028417;28;20414;-68
2024/01/17 00:37:23;;;;;;;0.70;0.70;;;;;;;-6.79;100.00;94728.34;1026857;28;20251;-67
2024/01/17 00:37:53;;;;;;;0.95;0.95;;;;;;;-6.78;100.00;94728.16;1027400;28;20023;-68
2024/01/17 00:38:24;;;;;;;1.17;1.17;;;;;;;-6.80;100.00;94724.25;1030134;28;20030;-67
2024/01/17 00:38:54;;;;;;;0.20;0.20;;;;;;;-6.76;100.00;94733.09;1022991;28;20112;-69
2024/01/17 00:39:25;;;;;;;1.20;1.10;;;;;;;-6.75;100.00;94727.03;1026925;28;20025;-66
2024/01/17 00:39:55;;;;;;;0.20;0.20;;;;;;;-6.75;100.00;94724.47;1027106;28;20022;-67
2024/01/17 00:40:27;;;;;;;0.52;0.40;;;;;;;-6.72;100.00;94727.44;1024595;28;20102;-67
2024/01/17 00:40:58;;;;;;;1.16;1.16;;;;;;;-6.74;100.00;94724.31;1026991;28;20029;-68
2024/01/17 00:41:28;;;;;;;11.02;2.97;;;;;;;-6.69;100.00;94721.19;1026812;28;20597;-67
2024/01/17 00:41:59;;;;;;;1.38;1.35;;;;;;;-6.68;100.00;94722.78;1027877;28;20034;-69
2024/01/17 00:42:30;;;;;;;1.40;1.14;;;;;;;-6.69;100.00;94718.66;1034900;28;20554;-69
2024/01/17 00:43:00;;;;;;;3.25;2.60;;;;;;;-6.68;100.00;94720.22;1031661;28;20041;-70
2024/01/17 00:43:32;;;;;;;1.42;1.13;;;;;;;-6.70;100.00;94717.88;1035074;28;20029;-68
2024/01/17 00:44:04;;;;;;;1.22;1.16;;;;;;;-6.71;100.00;94707.84;1035071;28;20034;-68
2024/01/17 00:44:38;;;;;;;0.58;0.58;;;;;;;-6.73;100.00;94709.78;1035224;28;20042;-68
2024/01/17 00:45:08;;;;;;;3.44;2.04;;;;;;;-6.72;100.00;94708.81;1034987;28;20090;-69
2024/01/17 00:45:39;;;;;;;0.28;0.28;;;;;;;-6.74;100.00;94710.75;1030681;28;20092;-66
2024/01/17 00:46:10;;;;;;;3.16;1.70;;;;;;;-6.74;100.00;94703.91;1028091;28;20023;-67
2024/01/17 00:46:41;;;;;;;0.65;0.65;;;;;;;-6.74;100.00;94705.63;1030638;28;20498;-66
2024/01/17 00:47:12;;;;;;;0.93;0.93;;;;;;;-6.73;100.00;94699.59;1030888;28;20026;-67
2024/01/17 00:47:42;;;;;;;2.74;2.24;;;;;;;-6.74;100.00;94705.63;1030896;28;20680;-69
2024/01/17 00:48:18;;;;;;;0.75;0.75;;;;;;;-6.73;100.00;94708.03;1030357;28;20031;-67
2024/01/17 00:48:48;;;;;;;1.78;0.82;;;;;;;-6.78;100.00;94699.31;1030807;28;20026;-68
2024/01/17 00:49:19;;;;;;;1.02;1.02;;;;;;;-6.72;100.00;94701.16;1026729;28;20035;-65
2024/01/17 00:49:49;;;;;;;3.47;2.58;;;;;;;-6.80;100.00;94696.97;1023228;29;20027;-68
2024/01/17 00:50:20;;;;;;;1.70;1.60;;;;;;;-6.74;100.00;94696.25;1019541;28;20040;-66
2024/01/17 00:50:50;;;;;;;0.77;0.77;;;;;;;-6.73;100.00;94697.03;1026834;28;20030;-67
2024/01/17 00:51:24;;;;;;;1.00;1.00;;;;;;;-6.74;100.00;94696.25;1031185;28;20034;-67
2024/01/17 00:51:54;;;;;;;2.90;1.90;;;;;;;-6.76;100.00;94698.19;1031213;28;20023;-68
2024/01/17 00:52:25;;;;;;;0.73;0.73;;;;;;;-6.76;100.00;94699.94;1034639;28;20030;-67
2024/01/17 00:52:55;;;;;;;0.50;0.43;;;;;;;-6.76;100.00;94697.41;1034968;28;20030;-67
2024/01/17 00:53:26;;;;;;;0.90;0.90;;;;;;;-6.75;100.00;94698.97;1034235;28;20555;-67
2024/01/17 00:53:56;;;;;;;0.88;0.77;;;;;;;-6.77;100.00;94695.81;1039430;28;20026;-67
2024/01/17 00:54:27;;;;;;;2.28;2.10;;;;;;;-6.77;100.00;94693.25;1039168;28;20025;-67
2024/01/17 00:54:58;;;;;;;1.02;0.98;;;;;;;-6.76;100.00;94689.75;1030531;28;20033;-67
2024/01/17 00:55:28;;;;;;;0.74;0.56;;;;;;;-6.76;100.00;94693.09;1022981;29;20027;-68
2024/01/17 00:55:59;;;;;;;1.05;1.02;;;;;;;-6.77;100.00;94683.03;1022426;29;20039;-66
2024/01/17 00:56:32;;;;;;;0.57;0.57;;;;;;;-6.76;100.00;94690.53;1019090;28;20023;-67
2024/01/17 00:57:03;;;;;;;0.40;0.40;;;;;;;-6.79;100.00;94683.25;1027300;28;20452;-67
2024/01/17 00:57:33;;;;;;;1.84;0.94;;;;;;;-6.79;100.00;94682.47;1026759;28;20041;-67
2024/01/17 00:58:07;;;;;;;1.70;1.60;;;;;;;-6.80;100.00;94684.22;1019426;28;20023;-67
2024/01/17 00:58:37;;;;;;;0.76;0.76;;;;;;;-6.81;100.00;94682.63;1022944;29;20027;-67
2024/01/17 00:59:07;;;;;;;0.10;0.10;;;;;;;-6.80;100.00;94686.00;1023218;28;20434;-68
2024/01/17 00:59:38;;;;;;;0.47;0.47;;;;;;;-6.80;100.00;94691.88;1027707;28;20200;-68
2024/01/17 01:00:09;;;;;;;0.32;0.32;;;;;;;-6.79;100.00;94685.00;1033498;28;20069;-67
2024/01/17 01:00:39;;;;;;;0.40;0.40;;;;;;;-6.78;100.00;94692.47;1022549;29;20567;-65
2024/01/17 01:01:09;;;;;;;0.57;0.57;;;;;;;-6.79;100.00;94683.25;1020666;28;20500;-67
2024/01/17 01:01:40;;;;;;;2.10;1.90;;;;;;;-6.79;100.00;94688.34;1018657;29;20027;-68
2024/01/17 01:02:10;;;;;;;0.47;0.30;;;;;;;-6.78;100.00;94684.81;1019104;29;20083;-67
2024/01/17 01:02:43;;;;;;;0.75;0.63;;;;;;;-6.75;100.00;94674.25;1018592;29;20031;-69
2024/01/17 01:03:13;;;;;;;0.54;0.36;;;;;;;-6.75;100.00;94683.66;1019103;29;20039;-68
2024/01/17 01:03:44;;;;;;;0.70;0.63;;;;;;;-6.78;100.00;94679.72;1019438;29;20035;-67
2024/01/17 01:04:14;;;;;;;0.55;0.55;;;;;;;-6.75;100.00;94688.78;1023067;28;20043;-69
2024/01/17 01:04:45;;;;;;;0.35;0.35;;;;;;;-6.78;100.00;94679.72;1026823;28;20202;-68
2024/01/17 01:05:15;;;;;;;0.77;0.75;;;;;;;-6.72;100.00;94678.22;1027170;28;20018;-67
2024/01/17 01:05:46;;;;;;;1.10;1.00;;;;;;;-6.72;100.00;94680.75;1026838;28;20525;-67
2024/01/17 01:06:16;;;;;;;2.28;1.85;;;;;;;-6.73;100.00;94677.41;1028563;28;20023;-67
2024/01/17 01:06:47;;;;;;;1.38;1.33;;;;;;;-6.71;100.00;94684.88;1026940;28;20094;-68
2024/01/17 01:07:17;;;;;;;1.67;1.50;;;;;;;-6.69;100.00;94677.84;1031026;28;20029;-68
2024/01/17 01:07:48;;;;;;;0.85;0.85;;;;;;;-6.69;100.00;94680.41;1030998;28;20520;-66
2024/01/17 01:08:18;;;;;;;1.10;1.00;;;;;;;-6.68;100.00;94676.88;1030484;28;20030;-69
2024/01/17 01:08:49;;;;;;;2.72;0.68;;;;;;;-6.69;100.00;94672.75;1030798;28;20441;-68
2024/01/17 01:09:20;;;;;;;1.65;1.55;;;;;;;-6.71;100.00;94680.56;1026970;28;20097;-68
2024/01/17 01:09:50;;;;;;;0.43;0.43;;;;;;;-6.69;100.00;94683.72;1025482;28;20023;-68
2024/01/17 01:10:21;;;;;;;0.55;0.55;;;;;;;-6.66;100.00;94690.25;1023268;28;20024;-67
2024/01/17 01:10:51;;;;;;;0.77;0.77;;;;;;;-6.63;100.00;94686.53;1026880;28;20035;-69
2024/01/17 01:11:21;;;;;;;2.15;1.02;;;;;;;-6.67;100.00;94681.81;1022895;28;20023;-67
2024/01/17 01:11:52;;;;;;;0.30;0.30;;;;;;;-6.66;100.00;94677.47;1027199;28;20799;-67
2024/01/17 01:12:22;;;;;;;4.95;3.03;;;;;;;-6.64;100.00;94680.63;1026942;28;20106;-68
2024/01/17 01:12:53;;;;;;;1.20;0.80;;;;;;;-6.64;100.00;94675.53;1022962;28;20035;-68
2024/01/17 01:13:23;;;;;;;1.48;1.38;;;;;;;-6.64;100.00;94672.97;1026925;28;20026;-68
2024/01/17 01:13:54;;;;;;;1.33;1.33;;;;;;;-6.61;100.00;94670.06;1026774;28;20033;-68
2024/01/17 01:14:24;;;;;;;0.50;0.50;;;;;;;-6.60;100.00;94678.53;1031346;28;20065;-68
2024/01/17 01:14:54;;;;;;;0.17;0.17;;;;;;;-6.59;100.00;94678.31;1027186;28;20038;-68
2024/01/17 01:15:25;;;;;;;0.80;0.80;;;;;;;-6.63;100.00;94674.56;1023058;28;20811;-70
2024/01/17 01:15:55;;;;;;;0.13;0.13;;;;;;;-6.62;100.00;94677.91;1023260;29;20035;-68
2024/01/17 01:16:26;;;;;;;0.25;0.25;;;;;;;-6.59;100.00;94688.53;1015097;29;20036;-67
2024/01/17 01:16:56;;;;;;;0.45;0.45;;;;;;;-6.62;100.00;94677.91;1015212;29;20037;-67
2024/01/17 01:17:27;;;;;;;0.77;0.77;;;;;;;-6.57;100.00;94685.78;1019386;29;20031;-68
2024/01/17 01:17:57;;;;;;;0.35;0.35;;;;;;;-6.56;100.00;94688.16;1023082;28;20023;-69
2024/01/17 01:18:28;;;;;;;0.68;0.68;;;;;;;-6.53;100.00;94692.13;1030704;28;20695;-68
2024/01/17 01:18:58;;;;;;;1.38;0.77;;;;;;;-6.54;100.00;94685.44;1035031;28;20032;-68
2024/01/17 01:19:28;;;;;;;0.82;0.82;;;;;;;-6.51;100.00;94687.63;1035204;28;20426;-69
2024/01/17 01:19:59;;;;;;;2.28;1.58;;;;;;;-6.50;100.00;94690.00;1035128;28;20037;-69
2024/01/17 01:20:30;;;;;;;0.73;0.70;;;;;;;-6.50;100.00;94682.34;1035340;28;20547;-68
2024/01/17 01:21:00;;;;;;;2.06;1.96;;;;;;;-6.48;100.00;94680.38;1030953;28;20037;-69
2024/01/17 01:21:31;;;;;;;0.65;0.65;;;;;;;-6.46;100.00;94681.00;1030121;28;20110;-67
2024/01/17 01:22:01;;;;;;;0.63;0.63;;;;;;;-6.46;100.00;94688.66;1026842;28;20031;-68
2024/01/17 01:22:32;;;;;;;0.52;0.52;;;;;;;-6.43;100.00;94677.28;1027192;28;20034;-70
2024/01/17 01:23:02;;;;;;;2.08;0.68;;;;;;;-6.45;100.00;94685.13;1027239;28;20031;-68
2024/01/17 01:23:33;;;;;;;2.20;1.52;;;;;;;-6.42;100.00;94682.19;1030508;28;20498;-68
2024/01/17 01:24:04;;;;;;;1.38;1.20;;;;;;;-6.38;100.00;94679.28;1035464;28;20516;-70
2024/01/17 01:24:34;;;;;;;0.50;0.50;;;;;;;-6.35;100.00;94678.91;1035151;28;20026;-67
2024/01/17 01:25:05;;;;;;;2.63;0.57;;;;;;;-6.34;100.00;94681.28;1034931;28;20665;-67
2024/01/17 01:25:35;;;;;;;1.17;1.15;;;;;;;-6.32;100.00;94676.00;1035521;28;20124;-68
2024/01/17 01:26:06;;;;;;;0.90;0.90;;;;;;;-6.32;100.00;94670.91;1035068;28;20033;-68
2024/01/17 01:26:36;;;;;;;0.75;0.75;;;;;;;-6.29;100.00;94673.88;1034866;28;20034;-68
2024/01/17 01:27:07;;;;;;;2.75;0.95;;;;;;;-6.26;100.00;94668.41;1035376;28;20021;-68
2024/01/17 01:27:37;;;;;;;0.30;0.30;;;;;;;-6.26;100.00;94665.84;1031060;28;20038;-70
2024/01/17 01:28:08;;;;;;;1.92;0.60;;;;;;;-6.29;100.00;94667.97;1026819;28;20406;-68
2024/01/17 01:28:38;;;;;;;0.08;0.08;;;;;;;-6.28;100.00;94661.91;1030847;28;20067;-67
2024/01/17 01:29:09;;;;;;;2.25;2.05;;;;;;;-6.21;100.00;94665.28;1027065;28;20027;-68
2024/01/17 01:29:39;;;;;;;1.85;1.35;;;;;;;-6.24;100.00;94656.22;1027179;28;20572;-68
2024/01/17 01:30:10;;;;;;;2.97;1.45;;;;;;;-6.20;100.00;94662.56;1026655;28;20030;-67
2024/01/17 01:30:40;;;;;;;1.77;0.82;;;;;;;-6.19;100.00;94660.78;1026829;28;20082;-67
2024/01/17 01:31:11;;;;;;;0.57;0.57;;;;;;;-6.14;100.00;94666.13;1019206;29;20043;-67
2024/01/17 01:31:41;;;;;;;0.75;0.75;;;;;;;-6.12;100.00;94664.19;1019741;28;20035;-69
2024/01/17 01:32:12;;;;;;;0.75;0.75;;;;;;;-6.14;100.00;94655.91;1027050;28;20034;-67
2024/01/17 01:32:42;;;;;;;0.82;0.80;;;;;;;-6.07;100.00;94651.66;1022922;28;20555;-67
2024/01/17 01:33:13;;;;;;;1.55;1.15;;;;;;;-6.05;100.00;94659.91;1026825;28;20034;-67
2024/01/17 01:33:43;;;;;;;0.30;0.30;;;;;;;-6.04;100.00;94658.91;1019076;29;20027;-67
2024/01/17 01:34:13;;;;;;;0.73;0.73;;;;;;;-6.04;100.00;94661.47;1023033;28;20035;-68
2024/01/17 01:34:44;;;;;;;0.10;0.10;;;;;;;-6.03;100.00;94663.06;1026882;28;20097;-67
2024/01/17 01:35:14;;;;;;;0.08;0.08;;;;;;;-6.01;100.00;94658.56;1027237;28;20415;-67
2024/01/17 01:35:45;;;;;;;2.80;1.58;;;;;;;-5.99;100.00;94663.47;1025286;28;20031;-67
2024/01/17 01:36:15;;;;;;;1.23;1.17;;;;;;;-5.95;100.00;94660.34;1027253;28;20023;-69
2024/01/17 01:36:46;;;;;;;1.05;0.95;;;;;;;-5.93;100.00;94658.41;1027219;28;20031;-67
2024/01/17 01:37:16;;;;;;;0.85;0.47;;;;;;;-5.89;100.00;94658.03;1026943;28;20031;-67
2024/01/17 01:37:47;;;;;;;0.80;0.73;;;;;;;-5.90;100.00;94656.41;1031050;28;20084;-68
2024/01/17 01:38:17;;;;;;;1.02;0.95;;;;;;;-5.85;100.00;94654.09;1026389;28;20042;-68
2024/01/17 01:38:48;;;;;;;2.20;1.88;;;;;;;-5.83;100.00;94649.63;1030524;28;20425;-69
2024/01/17 01:39:18;;;;;;;0.52;0.52;;;;;;;-5.82;100.00;94654.53;1035199;28;20030;-67
2024/01/17 01:39:48;;;;;;;1.25;0.43;;;;;;;-5.80;100.00;94647.47;1030821;28;20030;-67
2024/01/17 01:40:19;;;;;;;0.68;0.68;;;;;;;-5.82;100.00;94643.53;1026870;28;20023;-68
2024/01/17 01:40:49;;;;;;;0.68;0.68;;;;;;;-5.80;100.00;94646.66;1018594;29;20087;-68
2024/01/17 01:41:20;;;;;;;0.70;0.45;;;;;;;-5.86;100.00;94637.22;1018809;29;20546;-68
2024/01/17 01:41:50;;;;;;;0.47;0.47;;;;;;;-5.79;100.00;94648.25;1022950;28;20042;-67
2024/01/17 01:42:21;;;;;;;1.35;1.25;;;;;;;-5.79;100.00;94648.25;1023035;28;20031;-68
2024/01/17 01:42:53;;;;;;;0.90;0.90;;;;;;;-5.79;100.00;94649.03;1027535;28;20039;-68
2024/01/17 01:43:23;;;;;;;0.88;0.88;;;;;;;-5.80;100.00;94650.03;1018974;29;20044;-68
2024/01/17 01:43:54;;;;;;;0.68;0.68;;;;;;;-5.78;100.00;94654.94;1018518;28;20786;-68
2024/01/17 01:44:24;;;;;;;3.78;1.48;;;;;;;-5.79;100.00;94653.38;1019133;29;20035;-68
2024/01/17 01:44:55;;;;;;;1.40;0.65;;;;;;;-5.78;100.00;94644.72;1018917;29;20040;-68
2024/01/17 01:45:25;;;;;;;0.35;0.35;;;;;;;-5.74;100.00;94646.69;1022757;28;20039;-68
2024/01/17 01:46:16;;;;;;;0.65;0.65;;;;;;;-5.73;100.00;94644.94;1023106;28;20039;-67
2024/01/17 01:46:47;;;;;;;0.70;0.70;;;;;;;-5.74;100.00;94645.91;1019156;29;20185;-68
2024/01/17 01:47:17;;;;;;;0.60;0.60;;;;;;;-5.74;100.00;94644.13;1014835;29;20383;-68
2024/01/17 01:47:48;;;;;;;0.68;0.63;;;;;;;-5.75;100.00;94642.56;1022129;29;20031;-68
2024/01/17 01:48:18;;;;;;;0.77;0.77;;;;;;;-5.73;100.00;94644.94;1019042;29;20023;-68
2024/01/17 01:48:49;;;;;;;0.73;0.73;;;;;;;-5.77;100.00;94641.16;1019696;29;20035;-67
2024/01/17 01:49:19;;;;;;;10.43;1.35;;;;;;;-5.74;100.00;94649.25;1019495;28;20702;-67
2024/01/17 01:49:50;;;;;;;0.60;0.60;;;;;;;-5.75;100.00;94639.22;1031848;28;20042;-68
2024/01/17 01:50:20;;;;;;;2.28;2.08;;;;;;;-5.78;100.00;94631.94;1027222;28;20030;-68
2024/01/17 01:50:51;;;;;;;0.73;0.73;;;;;;;-5.70;100.00;94647.09;1023670;28;20457;-67
2024/01/17 01:51:21;;;;;;;0.60;0.60;;;;;;;-5.69;100.00;94634.16;1024744;28;20520;-67
2024/01/17 01:51:52;;;;;;;1.42;1.02;;;;;;;-5.71;100.00;94640.44;1016025;29;20054;-68
2024/01/17 01:52:23;;;;;;;2.55;1.17;;;;;;;-5.70;100.00;94637.69;1022378;28;20467;-68
2024/01/17 01:52:53;;;;;;;1.27;1.25;;;;;;;-5.66;100.00;94634.75;1023869;29;20282;-68
2024/01/17 01:53:25;;;;;;;2.15;1.02;;;;;;;-5.68;100.00;94634.94;1022664;28;20534;-67
2024/01/17 01:53:56;;;;;;;2.45;1.73;;;;;;;-5.63;100.00;94636.91;1023659;28;20034;-68
2024/01/17 01:54:27;;;;;;;0.65;0.65;;;;;;;-5.62;100.00;94633.41;1019436;29;20782;-67
2024/01/17 01:54:57;;;;;;;0.93;0.77;;;;;;;-5.57;100.00;94631.84;1019560;29;20271;-68
2024/01/17 01:55:28;;;;;;;0.47;0.47;;;;;;;-5.61;100.00;94628.09;1023970;28;20039;-69
2024/01/17 01:55:58;;;;;;;3.08;2.67;;;;;;;-5.56;100.00;94630.88;1026542;28;20039;-67
2024/01/17 01:56:33;;;;;;;1.00;1.00;;;;;;;-5.58;100.00;94630.28;1023457;29;20263;-67
2024/01/17 01:57:03;;;;;;;2.95;1.38;;;;;;;-5.50;100.00;94635.25;1019771;29;20291;-68
2024/01/17 01:57:35;;;;;;;0.90;0.52;;;;;;;-5.49;100.00;94634.25;1019192;29;20279;-68
2024/01/17 01:58:05;;;;;;;0.82;0.82;;;;;;;-5.48;100.00;94633.25;1019310;29;20031;-67
2024/01/17 01:58:36;;;;;;;1.55;1.45;;;;;;;-5.51;100.00;94623.41;1019500;29;20267;-68
2024/01/17 01:59:07;;;;;;;0.40;0.40;;;;;;;-5.57;100.00;94620.84;1027790;28;20074;-68
2024/01/17 01:59:37;;;;;;;1.13;1.13;;;;;;;-5.52;100.00;94629.50;1022426;29;20039;-68
2024/01/17 02:00:09;;;;;;;2.15;2.03;;;;;;;-5.50;100.00;94626.75;1019846;29;20327;-68
2024/01/17 02:00:39;;;;;;;0.10;0.10;;;;;;;-5.45;100.00;94639.75;1015733;29;20036;-68
2024/01/17 02:01:10;;;;;;;0.55;0.52;;;;;;;-5.47;100.00;94634.03;1016503;29;20287;-67
2024/01/17 02:01:41;;;;;;;14.65;2.55;;;;;;;-5.47;100.00;94627.16;1016164;29;20107;-69
2024/01/17 02:02:11;;;;;;;0.43;0.43;;;;;;;-5.45;100.00;94632.88;1020509;28;20020;-68
2024/01/17 02:02:42;;;;;;;1.45;1.42;;;;;;;-5.52;100.00;94623.63;1023501;28;20262;-66
2024/01/17 02:03:13;;;;;;;0.93;0.93;;;;;;;-5.40;100.00;94634.06;1031673;28;20014;-68
2024/01/17 02:03:43;;;;;;;0.50;0.50;;;;;;;-5.40;100.00;94636.63;1027860;28;20054;-69
2024/01/17 02:04:15;;;;;;;0.38;0.38;;;;;;;-5.36;100.00;94636.06;1027881;28;20262;-67
2024/01/17 02:04:46;;;;;;;0.30;0.30;;;;;;;-5.39;100.00;94628.00;1019888;29;20027;-67
2024/01/17 02:05:16;;;;;;;0.85;0.85;;;;;;;-5.38;100.00;94629.56;1020177;29;20675;-68
2024/01/17 02:05:47;;;;;;;0.43;0.43;;;;;;;-5.51;100.00;94610.63;1015699;29;20273;-68
2024/01/17 02:06:17;;;;;;;0.20;0.20;;;;;;;-5.36;100.00;94623.28;1013651;29;20027;-67
2024/01/17 02:06:48;;;;;;;0.75;0.75;;;;;;;-5.35;100.00;94626.63;1019878;29;20479;-67
2024/01/17 02:07:18;;;;;;;0.45;0.45;;;;;;;-5.36;100.00;94622.50;1024020;28;20019;-67
2024/01/17 02:07:49;;;;;;;0.73;0.73;;;;;;;-5.35;100.00;94632.53;1027466;28;20037;-68
2024/01/17 02:08:19;;;;;;;0.77;0.77;;;;;;;-5.40;100.00;94622.06;1023451;28;20031;-69
2024/01/17 02:08:55;;;;;;;0.80;0.80;;;;;;;-5.32;100.00;94623.69;1027741;28;20053;-68
2024/01/17 02:09:25;;;;;;;3.00;2.72;;;;;;;-5.35;100.00;94618.97;1026188;28;20038;-67
2024/01/17 02:09:56;;;;;;;0.73;0.73;;;;;;;-5.40;100.00;94619.53;1027619;28;20288;-68
2024/01/17 02:10:26;;;;;;;0.55;0.55;;;;;;;-5.41;100.00;94620.50;1032386;28;20050;-68
2024/01/17 02:10:56;;;;;;;0.35;0.35;;;;;;;-5.44;100.00;94613.22;1023601;29;20027;-68
2024/01/17 02:11:30;;;;;;;0.77;0.73;;;;;;;-5.48;100.00;94614.59;1025010;28;20046;-67
2024/01/17 02:12:00;;;;;;;0.57;0.57;;;;;;;-5.43;100.00;94621.66;1023762;29;20027;-69
2024/01/17 02:12:31;;;;;;;1.05;0.75;;;;;;;-5.42;100.00;94610.50;1023572;29;20946;-68
2024/01/17 02:13:02;;;;;;;0.38;0.38;;;;;;;-5.46;100.00;94607.53;1020689;29;20036;-68
2024/01/17 02:13:32;;;;;;;0.70;0.70;;;;;;;-5.43;100.00;94606.34;1023657;29;20456;-68
2024/01/17 02:14:03;;;;;;;0.75;0.75;;;;;;;-5.45;100.00;94607.31;1023730;28;20435;-68
2024/01/17 02:14:33;;;;;;;0.52;0.52;;;;;;;-5.45;100.00;94609.09;1028006;28;20031;-68
2024/01/17 02:15:04;;;;;;;2.25;1.63;;;;;;;-5.40;100.00;94606.75;1024030;28;20463;-67
2024/01/17 02:15:35;;;;;;;0.22;0.22;;;;;;;-5.41;100.00;94606.94;1027714;28;20231;-67
2024/01/17 02:16:05;;;;;;;0.70;0.63;;;;;;;-5.41;100.00;94609.50;1027621;28;20317;-66
2024/01/17 02:16:36;;;;;;;2.55;0.75;;;;;;;-5.42;100.00;94606.16;1027521;28;20025;-67
2024/01/17 02:17:07;;;;;;;1.08;0.80;;;;;;;-5.43;100.00;94602.03;1028026;28;20023;-67
2024/01/17 02:17:38;;;;;;;2.08;1.85;;;;;;;-5.49;100.00;94597.69;1023673;28;20038;-68
2024/01/17 02:18:08;;;;;;;1.20;0.65;;;;;;;-5.48;100.00;94599.25;1022645;29;20294;-68
2024/01/17 02:18:38;;;;;;;0.68;0.68;;;;;;;-5.40;100.00;94611.06;1024438;28;20414;-68
2024/01/17 02:19:10;;;;;;;0.20;0.20;;;;;;;-5.39;100.00;94607.56;1027283;28;20389;-68
2024/01/17 02:19:41;;;;;;;0.50;0.50;;;;;;;-5.35;100.00;94606.19;1027735;28;20049;-68
2024/01/17 02:20:11;;;;;;;0.10;0.10;;;;;;;-5.34;100.00;94600.09;1027522;28;20274;-67
2024/01/17 02:20:42;;;;;;;0.57;0.57;;;;;;;-5.33;100.00;94596.53;1023600;29;20289;-67
2024/01/17 02:21:12;;;;;;;0.55;0.55;;;;;;;-5.28;100.00;94599.31;1020577;28;20027;-69
2024/01/17 02:21:43;;;;;;;1.05;0.80;;;;;;;-5.22;100.00;94608.78;1027562;28;20393;-68
2024/01/17 02:22:13;;;;;;;0.75;0.75;;;;;;;-5.22;100.00;94599.34;1031877;28;20086;-68
2024/01/17 02:22:44;;;;;;;2.53;0.40;;;;;;;-5.24;100.00;94596.19;1031563;28;20022;-68